Bouzas — EAPC — position and weather

sailwx.info

Track history (hours):
 
Tides and Currents Weather Stations Pressure Air Temp Water Temp Dewpoint Dewpoint Depression Visibility Wind Speed Wind Dir Waves Ship Positions

Bouzas

Last reported at 2015-Sep-03 15:04 UTC. Time now 2015-Sep-03 17:10 UTC.
Position N 31°39' E 034°32'.

Length 142 m; draft 5.8 m.

Type: Cargo ship. MMSI: 224029000.

Date/timePositionNaut miles runAvg speedWind from/ knotsBaromVisibWave heightAir tempDewpointWater temp
2015-Sep-03 15:04N 31°39' E 034°32'0 0.0
2015-Sep-03 14:29N 31°39' E 034°32'1752431.9
2015-Sep-03 10:26N 37°56' W 000°12'1214.0
2015-Sep-03 09:34N 37°46' W 000°20'1514.1
2015-Sep-03 08:31N 37°34' W 000°31'1313.3
2015-Sep-03 07:33N 37°25' W 000°42'1413.7
2015-Sep-03 06:33N 37°16' W 000°55'5614.0
2015-Sep-03 02:32N 36°39' W 001°48'4513.4
2015-Sep-02 23:11N 36°19' W 002°38'1870207.0
2015-Sep-02 14:08N 31°39' E 034°32'0 0.0
2015-Sep-02 13:32N 31°39' E 034°32'0 0.0
2015-Sep-02 10:19N 31°39' E 034°32'0 0.0
2015-Sep-01 15:19N 31°39' E 034°32'0 0.0
2015-Sep-01 14:33N 31°39' E 034°32'0 0.0
2015-Sep-01 13:33N 31°39' E 034°32'0 0.0
2015-Aug-31 13:33N 31°39' E 034°32'  
2015-Aug-29 04:30N 37°12' W 001°04'1819.4
2015-Aug-29 03:33N 37°25' W 000°47'2019.8
2015-Aug-29 02:33N 37°39' W 000°29'2019.5
2015-Aug-29 01:33N 37°55' W 000°16'6619.5
2015-Aug-28 22:12N 38°51' E 000°28'1619.5
2015-Aug-28 21:23N 39°05' E 000°39'1619.6
2015-Aug-28 20:33N 39°19' E 000°48'2819.3
2015-Aug-28 19:06N 39°44' E 001°06'1018.9
2015-Aug-28 18:33N 39°53' E 001°13'1919.0
2015-Aug-28 17:33N 40°09' E 001°24'2019.4
2015-Aug-28 16:33N 40°26' E 001°37'2019.6
2015-Aug-28 15:33N 40°43' E 001°49'1919.5
2015-Aug-28 14:33N 41°00' E 002°01'1919.3
2015-Aug-28 13:33N 41°17' E 002°15'5 0.5
2015-Aug-28 03:32N 41°21' E 002°11'1212.2
2015-Aug-28 02:33N 41°10' E 002°07'1212.0
2015-Aug-28 01:34N 40°59' E 001°60'1211.9
2015-Aug-28 00:33N 40°49' E 001°52'1312.7
2015-Aug-27 23:33N 40°37' E 001°44'1312.6
2015-Aug-27 22:33N 40°26' E 001°37'1312.7
2015-Aug-27 21:33N 40°15' E 001°30'1312.6
2015-Aug-27 20:33N 40°03' E 001°23'1212.2
2015-Aug-27 19:33N 39°53' E 001°15'2713.4
2015-Aug-27 17:32N 39°29' E 000°58'6514.5
2015-Aug-27 13:05N 38°32' E 000°19'714.1
2015-Aug-27 12:33N 38°26' E 000°14'4113.7
2015-Aug-27 09:33N 37°52' W 000°15'1313.2
2015-Aug-27 08:34N 37°41' W 000°24'1313.0
2015-Aug-27 07:34N 37°31' W 000°35'1313.3
2015-Aug-27 06:33N 37°22' W 000°47'1413.5
2015-Aug-27 05:31N 37°13' W 001°00'  
Track history (hours):
 
Tides and Currents Weather Stations Pressure Air Temp Water Temp Dewpoint Dewpoint Depression Visibility Wind Speed Wind Dir Waves Ship Positions

Bouzas

Last reported at 2015-Sep-03 15:04 UTC. Time now 2015-Sep-03 17:10 UTC.
Position N 31°39' E 034°32'.

Length 142 m; draft 5.8 m.

Type: Cargo ship. MMSI: 224029000.

Date/timePositionNaut miles runAvg speedWind from/ knotsBaromVisibWave heightAir tempDewpointWater temp
2015-Sep-03 15:04N 31°39' E 034°32'0 0.0
2015-Sep-03 14:29N 31°39' E 034°32'1752431.9
2015-Sep-03 10:26N 37°56' W 000°12'1214.0
2015-Sep-03 09:34N 37°46' W 000°20'1514.1
2015-Sep-03 08:31N 37°34' W 000°31'1313.3
2015-Sep-03 07:33N 37°25' W 000°42'1413.7
2015-Sep-03 06:33N 37°16' W 000°55'5614.0
2015-Sep-03 02:32N 36°39' W 001°48'4513.4
2015-Sep-02 23:11N 36°19' W 002°38'1870207.0
2015-Sep-02 14:08N 31°39' E 034°32'0 0.0
2015-Sep-02 13:32N 31°39' E 034°32'0 0.0
2015-Sep-02 10:19N 31°39' E 034°32'0 0.0
2015-Sep-01 15:19N 31°39' E 034°32'0 0.0
2015-Sep-01 14:33N 31°39' E 034°32'0 0.0
2015-Sep-01 13:33N 31°39' E 034°32'0 0.0
2015-Aug-31 13:33N 31°39' E 034°32'  
2015-Aug-29 04:30N 37°12' W 001°04'1819.4
2015-Aug-29 03:33N 37°25' W 000°47'2019.8
2015-Aug-29 02:33N 37°39' W 000°29'2019.5
2015-Aug-29 01:33N 37°55' W 000°16'6619.5
2015-Aug-28 22:12N 38°51' E 000°28'1619.5
2015-Aug-28 21:23N 39°05' E 000°39'1619.6
2015-Aug-28 20:33N 39°19' E 000°48'2819.3
2015-Aug-28 19:06N 39°44' E 001°06'1018.9
2015-Aug-28 18:33N 39°53' E 001°13'1919.0
2015-Aug-28 17:33N 40°09' E 001°24'2019.4
2015-Aug-28 16:33N 40°26' E 001°37'2019.6
2015-Aug-28 15:33N 40°43' E 001°49'1919.5
2015-Aug-28 14:33N 41°00' E 002°01'1919.3
2015-Aug-28 13:33N 41°17' E 002°15'5 0.5
2015-Aug-28 03:32N 41°21' E 002°11'1212.2
2015-Aug-28 02:33N 41°10' E 002°07'1212.0
2015-Aug-28 01:34N 40°59' E 001°60'1211.9
2015-Aug-28 00:33N 40°49' E 001°52'1312.7
2015-Aug-27 23:33N 40°37' E 001°44'1312.6
2015-Aug-27 22:33N 40°26' E 001°37'1312.7
2015-Aug-27 21:33N 40°15' E 001°30'1312.6
2015-Aug-27 20:33N 40°03' E 001°23'1212.2
2015-Aug-27 19:33N 39°53' E 001°15'2713.4
2015-Aug-27 17:32N 39°29' E 000°58'6514.5
2015-Aug-27 13:05N 38°32' E 000°19'714.1
2015-Aug-27 12:33N 38°26' E 000°14'4113.7
2015-Aug-27 09:33N 37°52' W 000°15'1313.2
2015-Aug-27 08:34N 37°41' W 000°24'1313.0
2015-Aug-27 07:34N 37°31' W 000°35'1313.3
2015-Aug-27 06:33N 37°22' W 000°47'1413.5
2015-Aug-27 05:31N 37°13' W 001°00'  

Dump ship's entire track history